sensor_id;sensor_type;location;lat;lon;timestamp;temperature;humidity
54461;DHT22;69977;49.414;11.010;2023-11-19T00:00:07;6.00;99.90
54461;DHT22;69977;49.414;11.010;2023-11-19T00:02:38;6.00;99.90
54461;DHT22;69977;49.414;11.010;2023-11-19T00:05:04;6.00;99.90
54461;DHT22;69977;49.414;11.010;2023-11-19T00:07:35;6.10;99.90
54461;DHT22;69977;49.414;11.010;2023-11-19T00:10:02;6.10;99.90
54461;DHT22;69977;49.414;11.010;2023-11-19T00:12:30;6.10;99.90
54461;DHT22;69977;49.414;11.010;2023-11-19T00:14:55;6.10;99.90
54461;DHT22;69977;49.414;11.010;2023-11-19T00:17:21;6.10;99.90
54461;DHT22;69977;49.414;11.010;2023-11-19T00:19:47;6.10;99.90
54461;DHT22;69977;49.414;11.010;2023-11-19T00:22:12;6.20;99.90
54461;DHT22;69977;49.414;11.010;2023-11-19T00:24:38;6.20;99.90
54461;DHT22;69977;49.414;11.010;2023-11-19T00:27:04;6.10;99.90
54461;DHT22;69977;49.414;11.010;2023-11-19T00:29:30;6.10;99.90
54461;DHT22;69977;49.414;11.010;2023-11-19T00:31:56;6.20;99.90
54461;DHT22;69977;49.414;11.010;2023-11-19T00:34:22;6.20;99.90
54461;DHT22;69977;49.414;11.010;2023-11-19T00:36:48;6.20;99.90
54461;DHT22;69977;49.414;11.010;2023-11-19T00:39:14;6.20;99.90
54461;DHT22;69977;49.414;11.010;2023-11-19T00:41:40;6.20;99.90
54461;DHT22;69977;49.414;11.010;2023-11-19T00:44:06;6.20;99.90
54461;DHT22;69977;49.414;11.010;2023-11-19T00:46:32;6.20;99.90
54461;DHT22;69977;49.414;11.010;2023-11-19T00:48:58;6.20;99.90
54461;DHT22;69977;49.414;11.010;2023-11-19T00:51:25;6.20;99.90
54461;DHT22;69977;49.414;11.010;2023-11-19T00:53:52;6.10;99.90
54461;DHT22;69977;49.414;11.010;2023-11-19T00:56:19;6.20;99.90
54461;DHT22;69977;49.414;11.010;2023-11-19T00:58:45;6.30;99.90
54461;DHT22;69977;49.414;11.010;2023-11-19T01:01:14;6.30;99.90
54461;DHT22;69977;49.414;11.010;2023-11-19T01:03:40;6.30;99.90
54461;DHT22;69977;49.414;11.010;2023-11-19T01:06:06;6.30;99.90
54461;DHT22;69977;49.414;11.010;2023-11-19T01:08:32;6.20;99.90
54461;DHT22;69977;49.414;11.010;2023-11-19T01:10:58;6.20;99.90
54461;DHT22;69977;49.414;11.010;2023-11-19T01:13:25;6.20;99.90
54461;DHT22;69977;49.414;11.010;2023-11-19T01:15:51;6.20;99.90
54461;DHT22;69977;49.414;11.010;2023-11-19T01:18:17;6.10;99.90
54461;DHT22;69977;49.414;11.010;2023-11-19T01:20:42;6.20;99.90
54461;DHT22;69977;49.414;11.010;2023-11-19T01:23:08;6.20;99.90
54461;DHT22;69977;49.414;11.010;2023-11-19T01:25:34;6.20;99.90
54461;DHT22;69977;49.414;11.010;2023-11-19T01:28:01;6.30;99.90
54461;DHT22;69977;49.414;11.010;2023-11-19T01:30:28;6.30;99.90
54461;DHT22;69977;49.414;11.010;2023-11-19T01:32:54;6.30;99.90
54461;DHT22;69977;49.414;11.010;2023-11-19T01:35:19;6.30;99.90
54461;DHT22;69977;49.414;11.010;2023-11-19T01:37:45;6.30;99.90
54461;DHT22;69977;49.414;11.010;2023-11-19T01:40:11;6.30;99.90
54461;DHT22;69977;49.414;11.010;2023-11-19T01:42:38;6.30;99.90
54461;DHT22;69977;49.414;11.010;2023-11-19T01:45:04;6.40;99.90
54461;DHT22;69977;49.414;11.010;2023-11-19T01:47:33;6.40;99.90
54461;DHT22;69977;49.414;11.010;2023-11-19T01:49:59;6.40;99.90
54461;DHT22;69977;49.414;11.010;2023-11-19T01:52:25;6.40;99.90
54461;DHT22;69977;49.414;11.010;2023-11-19T01:54:53;6.40;99.90
54461;DHT22;69977;49.414;11.010;2023-11-19T01:57:21;6.40;99.90
54461;DHT22;69977;49.414;11.010;2023-11-19T01:59:52;6.40;99.90
54461;DHT22;69977;49.414;11.010;2023-11-19T02:02:18;6.40;99.90
54461;DHT22;69977;49.414;11.010;2023-11-19T02:04:49;6.40;99.90
54461;DHT22;69977;49.414;11.010;2023-11-19T02:07:15;6.40;99.90
54461;DHT22;69977;49.414;11.010;2023-11-19T02:09:43;6.50;99.90
54461;DHT22;69977;49.414;11.010;2023-11-19T02:12:09;6.40;99.90
54461;DHT22;69977;49.414;11.010;2023-11-19T02:14:37;6.40;99.90
54461;DHT22;69977;49.414;11.010;2023-11-19T02:17:04;6.40;99.90
54461;DHT22;69977;49.414;11.010;2023-11-19T02:19:30;6.40;99.90
54461;DHT22;69977;49.414;11.010;2023-11-19T02:21:56;6.30;99.90
54461;DHT22;69977;49.414;11.010;2023-11-19T02:24:22;6.40;99.90
54461;DHT22;69977;49.414;11.010;2023-11-19T02:29:21;6.40;99.90
54461;DHT22;69977;49.414;11.010;2023-11-19T02:31:47;6.40;99.90
54461;DHT22;69977;49.414;11.010;2023-11-19T02:34:13;6.50;99.90
54461;DHT22;69977;49.414;11.010;2023-11-19T02:36:39;6.50;99.90
54461;DHT22;69977;49.414;11.010;2023-11-19T02:39:07;6.50;99.90
54461;DHT22;69977;49.414;11.010;2023-11-19T02:41:36;6.60;99.90
54461;DHT22;69977;49.414;11.010;2023-11-19T02:44:08;6.50;99.90
54461;DHT22;69977;49.414;11.010;2023-11-19T02:46:33;6.50;99.90
54461;DHT22;69977;49.414;11.010;2023-11-19T02:48:59;6.50;99.90
54461;DHT22;69977;49.414;11.010;2023-11-19T02:51:26;6.50;99.90
54461;DHT22;69977;49.414;11.010;2023-11-19T02:53:53;6.50;99.90
54461;DHT22;69977;49.414;11.010;2023-11-19T02:56:19;6.50;99.90
54461;DHT22;69977;49.414;11.010;2023-11-19T02:58:55;6.50;99.90
54461;DHT22;69977;49.414;11.010;2023-11-19T03:01:22;6.50;99.90
54461;DHT22;69977;49.414;11.010;2023-11-19T03:04:00;6.50;99.90
54461;DHT22;69977;49.414;11.010;2023-11-19T03:06:27;6.50;99.90
54461;DHT22;69977;49.414;11.010;2023-11-19T03:08:55;6.60;99.90
54461;DHT22;69977;49.414;11.010;2023-11-19T03:11:21;6.50;99.90
54461;DHT22;69977;49.414;11.010;2023-11-19T03:13:47;6.60;99.90
54461;DHT22;69977;49.414;11.010;2023-11-19T03:16:13;6.50;99.90
54461;DHT22;69977;49.414;11.010;2023-11-19T03:18:39;6.60;99.90
54461;DHT22;69977;49.414;11.010;2023-11-19T03:21:06;6.60;99.90
54461;DHT22;69977;49.414;11.010;2023-11-19T03:23:33;6.60;99.90
54461;DHT22;69977;49.414;11.010;2023-11-19T03:25:59;6.60;99.90
54461;DHT22;69977;49.414;11.010;2023-11-19T03:28:29;6.60;99.90
54461;DHT22;69977;49.414;11.010;2023-11-19T03:30:54;6.60;99.90
54461;DHT22;69977;49.414;11.010;2023-11-19T03:33:20;6.60;99.90
54461;DHT22;69977;49.414;11.010;2023-11-19T03:35:46;6.60;99.90
54461;DHT22;69977;49.414;11.010;2023-11-19T03:38:12;6.70;99.90
54461;DHT22;69977;49.414;11.010;2023-11-19T03:40:39;6.70;99.90
54461;DHT22;69977;49.414;11.010;2023-11-19T03:43:04;6.70;99.90
54461;DHT22;69977;49.414;11.010;2023-11-19T03:45:30;6.70;99.90
54461;DHT22;69977;49.414;11.010;2023-11-19T03:47:56;6.70;99.90
54461;DHT22;69977;49.414;11.010;2023-11-19T03:50:22;6.70;99.90
54461;DHT22;69977;49.414;11.010;2023-11-19T03:52:49;6.70;99.90
54461;DHT22;69977;49.414;11.010;2023-11-19T03:55:15;6.70;99.90
54461;DHT22;69977;49.414;11.010;2023-11-19T03:57:41;6.70;99.90
54461;DHT22;69977;49.414;11.010;2023-11-19T04:00:07;6.70;99.90
54461;DHT22;69977;49.414;11.010;2023-11-19T04:02:40;6.70;99.90
54461;DHT22;69977;49.414;11.010;2023-11-19T04:05:06;6.70;99.90
54461;DHT22;69977;49.414;11.010;2023-11-19T04:07:32;6.70;99.90
54461;DHT22;69977;49.414;11.010;2023-11-19T04:09:58;6.80;99.90
54461;DHT22;69977;49.414;11.010;2023-11-19T04:12:24;6.70;99.90
54461;DHT22;69977;49.414;11.010;2023-11-19T04:14:50;6.80;99.90
54461;DHT22;69977;49.414;11.010;2023-11-19T04:17:17;6.70;99.90
54461;DHT22;69977;49.414;11.010;2023-11-19T04:19:43;6.70;99.90
54461;DHT22;69977;49.414;11.010;2023-11-19T04:22:09;6.70;99.90
54461;DHT22;69977;49.414;11.010;2023-11-19T04:24:35;6.80;99.90
54461;DHT22;69977;49.414;11.010;2023-11-19T04:27:01;6.80;99.90
54461;DHT22;69977;49.414;11.010;2023-11-19T04:29:26;6.70;99.90
54461;DHT22;69977;49.414;11.010;2023-11-19T04:31:53;6.70;99.90
54461;DHT22;69977;49.414;11.010;2023-11-19T04:34:18;6.80;99.90
54461;DHT22;69977;49.414;11.010;2023-11-19T04:36:44;6.80;99.90
54461;DHT22;69977;49.414;11.010;2023-11-19T04:39:10;6.90;99.90
54461;DHT22;69977;49.414;11.010;2023-11-19T04:41:51;6.90;99.90
54461;DHT22;69977;49.414;11.010;2023-11-19T04:44:18;6.90;99.90
54461;DHT22;69977;49.414;11.010;2023-11-19T04:46:45;6.90;99.90
54461;DHT22;69977;49.414;11.010;2023-11-19T04:49:11;6.90;99.90
54461;DHT22;69977;49.414;11.010;2023-11-19T04:51:41;6.90;99.90
54461;DHT22;69977;49.414;11.010;2023-11-19T04:54:10;6.90;99.90
54461;DHT22;69977;49.414;11.010;2023-11-19T04:56:36;6.90;99.90
54461;DHT22;69977;49.414;11.010;2023-11-19T04:59:03;6.90;99.90
54461;DHT22;69977;49.414;11.010;2023-11-19T05:01:34;6.90;99.90
54461;DHT22;69977;49.414;11.010;2023-11-19T05:04:01;6.90;99.90
54461;DHT22;69977;49.414;11.010;2023-11-19T05:06:28;6.90;99.90
54461;DHT22;69977;49.414;11.010;2023-11-19T05:08:55;6.90;99.90
54461;DHT22;69977;49.414;11.010;2023-11-19T05:11:21;7.00;99.90
54461;DHT22;69977;49.414;11.010;2023-11-19T05:13:47;7.00;99.90
54461;DHT22;69977;49.414;11.010;2023-11-19T05:16:13;7.00;99.90
54461;DHT22;69977;49.414;11.010;2023-11-19T05:18:42;7.00;99.90
54461;DHT22;69977;49.414;11.010;2023-11-19T05:21:08;7.00;99.90
54461;DHT22;69977;49.414;11.010;2023-11-19T05:23:34;7.10;99.90
54461;DHT22;69977;49.414;11.010;2023-11-19T05:26:01;7.10;99.90
54461;DHT22;69977;49.414;11.010;2023-11-19T05:28:27;7.20;99.90
54461;DHT22;69977;49.414;11.010;2023-11-19T05:30:53;7.20;99.90
54461;DHT22;69977;49.414;11.010;2023-11-19T05:33:19;7.20;99.90
54461;DHT22;69977;49.414;11.010;2023-11-19T05:35:45;7.20;99.90
54461;DHT22;69977;49.414;11.010;2023-11-19T05:38:11;7.20;99.90
54461;DHT22;69977;49.414;11.010;2023-11-19T05:40:36;7.20;99.90
54461;DHT22;69977;49.414;11.010;2023-11-19T05:43:04;7.20;99.90
54461;DHT22;69977;49.414;11.010;2023-11-19T05:45:31;7.20;99.90
54461;DHT22;69977;49.414;11.010;2023-11-19T05:47:57;7.20;99.90
54461;DHT22;69977;49.414;11.010;2023-11-19T05:50:23;7.30;99.90
54461;DHT22;69977;49.414;11.010;2023-11-19T05:52:49;7.30;99.90
54461;DHT22;69977;49.414;11.010;2023-11-19T05:55:15;7.50;99.90
54461;DHT22;69977;49.414;11.010;2023-11-19T05:57:41;7.50;99.90
54461;DHT22;69977;49.414;11.010;2023-11-19T06:00:08;7.40;99.90
54461;DHT22;69977;49.414;11.010;2023-11-19T06:02:42;7.40;99.90
54461;DHT22;69977;49.414;11.010;2023-11-19T06:05:08;7.50;99.90
54461;DHT22;69977;49.414;11.010;2023-11-19T06:07:35;7.40;99.90
54461;DHT22;69977;49.414;11.010;2023-11-19T06:10:02;7.50;99.90
54461;DHT22;69977;49.414;11.010;2023-11-19T06:12:31;7.50;99.90
54461;DHT22;69977;49.414;11.010;2023-11-19T06:14:57;7.50;99.90
54461;DHT22;69977;49.414;11.010;2023-11-19T06:17:23;7.50;99.90
54461;DHT22;69977;49.414;11.010;2023-11-19T06:19:49;7.50;99.90
54461;DHT22;69977;49.414;11.010;2023-11-19T06:22:14;7.50;99.90
54461;DHT22;69977;49.414;11.010;2023-11-19T06:24:40;7.60;99.90
54461;DHT22;69977;49.414;11.010;2023-11-19T06:27:06;7.60;99.90
54461;DHT22;69977;49.414;11.010;2023-11-19T06:29:31;7.60;99.90
54461;DHT22;69977;49.414;11.010;2023-11-19T06:31:57;7.60;99.90
54461;DHT22;69977;49.414;11.010;2023-11-19T06:34:23;7.60;99.90
54461;DHT22;69977;49.414;11.010;2023-11-19T06:36:49;7.70;99.90
54461;DHT22;69977;49.414;11.010;2023-11-19T06:39:14;7.70;99.90
54461;DHT22;69977;49.414;11.010;2023-11-19T06:41:45;7.80;99.90
54461;DHT22;69977;49.414;11.010;2023-11-19T06:44:11;7.80;99.90
54461;DHT22;69977;49.414;11.010;2023-11-19T06:46:37;7.80;99.90
54461;DHT22;69977;49.414;11.010;2023-11-19T06:49:03;7.90;99.90
54461;DHT22;69977;49.414;11.010;2023-11-19T06:51:29;7.90;99.90
54461;DHT22;69977;49.414;11.010;2023-11-19T06:53:55;7.90;99.90
54461;DHT22;69977;49.414;11.010;2023-11-19T06:56:21;8.00;99.90
54461;DHT22;69977;49.414;11.010;2023-11-19T06:58:48;8.00;99.90
54461;DHT22;69977;49.414;11.010;2023-11-19T07:01:15;8.10;99.90
54461;DHT22;69977;49.414;11.010;2023-11-19T07:03:41;8.20;99.90
54461;DHT22;69977;49.414;11.010;2023-11-19T07:06:07;8.20;99.90
54461;DHT22;69977;49.414;11.010;2023-11-19T07:08:34;8.20;99.90
54461;DHT22;69977;49.414;11.010;2023-11-19T07:11:00;8.30;99.90
54461;DHT22;69977;49.414;11.010;2023-11-19T07:13:25;8.30;99.90
54461;DHT22;69977;49.414;11.010;2023-11-19T07:15:55;8.70;99.90
54461;DHT22;69977;49.414;11.010;2023-11-19T07:18:22;8.70;99.90
54461;DHT22;69977;49.414;11.010;2023-11-19T07:20:48;8.80;99.90
54461;DHT22;69977;49.414;11.010;2023-11-19T07:23:14;8.80;99.90
54461;DHT22;69977;49.414;11.010;2023-11-19T07:25:43;8.80;99.90
54461;DHT22;69977;49.414;11.010;2023-11-19T07:28:13;8.90;99.90
54461;DHT22;69977;49.414;11.010;2023-11-19T07:30:38;8.90;99.90
54461;DHT22;69977;49.414;11.010;2023-11-19T07:33:05;9.00;99.90
54461;DHT22;69977;49.414;11.010;2023-11-19T07:35:31;9.00;99.90
54461;DHT22;69977;49.414;11.010;2023-11-19T07:37:57;9.00;99.90
54461;DHT22;69977;49.414;11.010;2023-11-19T07:40:24;9.20;99.90
54461;DHT22;69977;49.414;11.010;2023-11-19T07:42:49;9.40;99.90
54461;DHT22;69977;49.414;11.010;2023-11-19T07:45:16;9.50;99.90
54461;DHT22;69977;49.414;11.010;2023-11-19T07:47:42;9.70;99.90
54461;DHT22;69977;49.414;11.010;2023-11-19T07:50:10;9.90;99.90
54461;DHT22;69977;49.414;11.010;2023-11-19T07:52:37;9.90;99.90
54461;DHT22;69977;49.414;11.010;2023-11-19T07:55:03;10.00;99.90
54461;DHT22;69977;49.414;11.010;2023-11-19T07:57:30;10.10;99.90
54461;DHT22;69977;49.414;11.010;2023-11-19T08:00:00;10.20;99.90
54461;DHT22;69977;49.414;11.010;2023-11-19T08:02:28;10.20;99.90
54461;DHT22;69977;49.414;11.010;2023-11-19T08:04:54;10.30;99.90
54461;DHT22;69977;49.414;11.010;2023-11-19T08:07:21;10.40;99.90
54461;DHT22;69977;49.414;11.010;2023-11-19T08:09:48;10.30;99.90
54461;DHT22;69977;49.414;11.010;2023-11-19T08:12:14;10.30;99.90
54461;DHT22;69977;49.414;11.010;2023-11-19T08:14:41;10.40;99.90
54461;DHT22;69977;49.414;11.010;2023-11-19T08:17:07;10.50;99.90
54461;DHT22;69977;49.414;11.010;2023-11-19T08:19:33;10.40;99.90
54461;DHT22;69977;49.414;11.010;2023-11-19T08:21:58;10.50;99.90
54461;DHT22;69977;49.414;11.010;2023-11-19T08:24:24;10.50;99.90
54461;DHT22;69977;49.414;11.010;2023-11-19T08:26:50;10.50;99.90
54461;DHT22;69977;49.414;11.010;2023-11-19T08:29:16;10.60;99.90
54461;DHT22;69977;49.414;11.010;2023-11-19T08:31:42;10.70;99.90
54461;DHT22;69977;49.414;11.010;2023-11-19T08:34:08;10.70;99.90
54461;DHT22;69977;49.414;11.010;2023-11-19T08:36:34;10.70;99.90
54461;DHT22;69977;49.414;11.010;2023-11-19T08:39:00;10.70;99.90
54461;DHT22;69977;49.414;11.010;2023-11-19T08:41:26;10.80;99.90
54461;DHT22;69977;49.414;11.010;2023-11-19T08:43:52;10.90;99.90
54461;DHT22;69977;49.414;11.010;2023-11-19T08:46:18;11.00;99.90
54461;DHT22;69977;49.414;11.010;2023-11-19T08:48:45;11.10;99.90
54461;DHT22;69977;49.414;11.010;2023-11-19T08:51:12;11.20;99.90
54461;DHT22;69977;49.414;11.010;2023-11-19T08:53:38;11.20;99.90
54461;DHT22;69977;49.414;11.010;2023-11-19T08:56:04;11.30;99.90
54461;DHT22;69977;49.414;11.010;2023-11-19T08:58:31;11.30;99.90
54461;DHT22;69977;49.414;11.010;2023-11-19T09:00:57;11.40;99.90
54461;DHT22;69977;49.414;11.010;2023-11-19T09:03:23;11.40;99.90
54461;DHT22;69977;49.414;11.010;2023-11-19T09:05:49;11.50;99.90
54461;DHT22;69977;49.414;11.010;2023-11-19T09:08:15;11.50;99.90
54461;DHT22;69977;49.414;11.010;2023-11-19T09:10:41;11.50;99.90
54461;DHT22;69977;49.414;11.010;2023-11-19T09:13:06;11.60;99.90
54461;DHT22;69977;49.414;11.010;2023-11-19T09:15:33;11.80;99.90
54461;DHT22;69977;49.414;11.010;2023-11-19T09:17:59;11.80;99.90
54461;DHT22;69977;49.414;11.010;2023-11-19T09:20:24;11.90;99.90
54461;DHT22;69977;49.414;11.010;2023-11-19T09:22:50;12.00;99.90
54461;DHT22;69977;49.414;11.010;2023-11-19T09:25:16;12.00;99.90
54461;DHT22;69977;49.414;11.010;2023-11-19T09:27:43;12.00;99.90
54461;DHT22;69977;49.414;11.010;2023-11-19T09:30:09;12.20;99.90
54461;DHT22;69977;49.414;11.010;2023-11-19T09:32:35;12.30;99.90
54461;DHT22;69977;49.414;11.010;2023-11-19T09:35:03;12.30;99.90
54461;DHT22;69977;49.414;11.010;2023-11-19T09:37:29;12.40;99.90
54461;DHT22;69977;49.414;11.010;2023-11-19T09:39:55;12.40;99.90
54461;DHT22;69977;49.414;11.010;2023-11-19T09:42:23;12.50;99.90
54461;DHT22;69977;49.414;11.010;2023-11-19T09:44:49;12.50;99.90
54461;DHT22;69977;49.414;11.010;2023-11-19T09:47:17;12.50;99.90
54461;DHT22;69977;49.414;11.010;2023-11-19T09:49:44;12.60;99.90
54461;DHT22;69977;49.414;11.010;2023-11-19T09:52:10;12.60;99.90
54461;DHT22;69977;49.414;11.010;2023-11-19T09:54:36;12.60;99.90
54461;DHT22;69977;49.414;11.010;2023-11-19T09:57:02;12.60;99.90
54461;DHT22;69977;49.414;11.010;2023-11-19T09:59:30;12.60;99.90
54461;DHT22;69977;49.414;11.010;2023-11-19T10:01:56;12.60;99.90
54461;DHT22;69977;49.414;11.010;2023-11-19T10:04:23;12.70;99.90
54461;DHT22;69977;49.414;11.010;2023-11-19T10:06:52;12.70;99.90
54461;DHT22;69977;49.414;11.010;2023-11-19T10:09:18;12.70;99.90
54461;DHT22;69977;49.414;11.010;2023-11-19T10:11:44;12.80;99.90
54461;DHT22;69977;49.414;11.010;2023-11-19T10:14:10;12.80;99.90
54461;DHT22;69977;49.414;11.010;2023-11-19T10:16:36;12.80;99.90
54461;DHT22;69977;49.414;11.010;2023-11-19T10:19:03;12.80;99.90
54461;DHT22;69977;49.414;11.010;2023-11-19T10:21:29;12.80;99.90
54461;DHT22;69977;49.414;11.010;2023-11-19T10:23:58;12.80;99.90
54461;DHT22;69977;49.414;11.010;2023-11-19T10:26:26;12.70;99.90
54461;DHT22;69977;49.414;11.010;2023-11-19T10:28:52;12.70;99.90
54461;DHT22;69977;49.414;11.010;2023-11-19T10:31:19;12.70;99.90
54461;DHT22;69977;49.414;11.010;2023-11-19T10:33:46;12.50;99.90
54461;DHT22;69977;49.414;11.010;2023-11-19T10:36:13;12.40;99.90
54461;DHT22;69977;49.414;11.010;2023-11-19T10:38:40;12.40;99.90
54461;DHT22;69977;49.414;11.010;2023-11-19T10:41:07;12.30;99.90
54461;DHT22;69977;49.414;11.010;2023-11-19T10:43:43;12.40;99.90
54461;DHT22;69977;49.414;11.010;2023-11-19T10:46:13;12.50;99.90
54461;DHT22;69977;49.414;11.010;2023-11-19T10:48:39;12.60;99.90
54461;DHT22;69977;49.414;11.010;2023-11-19T10:51:07;12.70;99.90
54461;DHT22;69977;49.414;11.010;2023-11-19T10:53:37;12.80;99.90
54461;DHT22;69977;49.414;11.010;2023-11-19T10:56:10;12.90;99.90
54461;DHT22;69977;49.414;11.010;2023-11-19T10:58:36;13.00;99.90
54461;DHT22;69977;49.414;11.010;2023-11-19T11:01:11;13.20;99.90
54461;DHT22;69977;49.414;11.010;2023-11-19T11:03:40;13.20;99.90
54461;DHT22;69977;49.414;11.010;2023-11-19T11:06:06;13.20;99.90
54461;DHT22;69977;49.414;11.010;2023-11-19T11:08:34;13.20;99.90
54461;DHT22;69977;49.414;11.010;2023-11-19T11:11:02;13.30;99.90
54461;DHT22;69977;49.414;11.010;2023-11-19T11:13:31;13.20;99.90
54461;DHT22;69977;49.414;11.010;2023-11-19T11:15:57;13.20;99.90
54461;DHT22;69977;49.414;11.010;2023-11-19T11:18:24;13.30;99.90
54461;DHT22;69977;49.414;11.010;2023-11-19T11:20:57;13.30;99.90
54461;DHT22;69977;49.414;11.010;2023-11-19T11:29:04;13.60;99.90
54461;DHT22;69977;49.414;11.010;2023-11-19T11:34:50;13.70;99.90
54461;DHT22;69977;49.414;11.010;2023-11-19T11:37:34;13.70;99.90
54461;DHT22;69977;49.414;11.010;2023-11-19T11:40:03;13.70;99.90
54461;DHT22;69977;49.414;11.010;2023-11-19T11:42:36;13.60;99.90
54461;DHT22;69977;49.414;11.010;2023-11-19T11:45:09;13.60;99.90
54461;DHT22;69977;49.414;11.010;2023-11-19T11:50:22;13.90;99.90
54461;DHT22;69977;49.414;11.010;2023-11-19T11:58:21;13.90;99.90
54461;DHT22;69977;49.414;11.010;2023-11-19T12:00:47;13.90;99.90
54461;DHT22;69977;49.414;11.010;2023-11-19T12:03:14;14.00;99.90
54461;DHT22;69977;49.414;11.010;2023-11-19T12:05:44;14.10;99.90
54461;DHT22;69977;49.414;11.010;2023-11-19T12:08:11;14.00;99.90
54461;DHT22;69977;49.414;11.010;2023-11-19T12:10:52;14.00;99.90
54461;DHT22;69977;49.414;11.010;2023-11-19T12:13:20;14.00;99.90
54461;DHT22;69977;49.414;11.010;2023-11-19T12:18:30;14.00;99.90
54461;DHT22;69977;49.414;11.010;2023-11-19T12:20:56;14.10;99.90
54461;DHT22;69977;49.414;11.010;2023-11-19T12:23:23;14.10;99.90
54461;DHT22;69977;49.414;11.010;2023-11-19T12:25:49;14.10;99.90
54461;DHT22;69977;49.414;11.010;2023-11-19T12:28:16;14.10;99.90
54461;DHT22;69977;49.414;11.010;2023-11-19T12:30:43;14.10;99.90
54461;DHT22;69977;49.414;11.010;2023-11-19T12:33:13;14.10;99.90
54461;DHT22;69977;49.414;11.010;2023-11-19T12:38:06;14.20;99.90
54461;DHT22;69977;49.414;11.010;2023-11-19T12:40:32;14.30;99.90
54461;DHT22;69977;49.414;11.010;2023-11-19T12:42:58;14.30;99.90
54461;DHT22;69977;49.414;11.010;2023-11-19T12:45:27;14.40;99.90
54461;DHT22;69977;49.414;11.010;2023-11-19T12:48:06;14.60;99.90
54461;DHT22;69977;49.414;11.010;2023-11-19T12:50:55;14.60;99.90
54461;DHT22;69977;49.414;11.010;2023-11-19T12:53:22;14.60;99.90
54461;DHT22;69977;49.414;11.010;2023-11-19T12:55:48;14.70;99.90
54461;DHT22;69977;49.414;11.010;2023-11-19T12:58:34;14.60;99.90
54461;DHT22;69977;49.414;11.010;2023-11-19T13:01:06;14.60;99.90
54461;DHT22;69977;49.414;11.010;2023-11-19T13:03:35;14.50;99.90
54461;DHT22;69977;49.414;11.010;2023-11-19T13:08:35;14.40;99.90
54461;DHT22;69977;49.414;11.010;2023-11-19T13:11:01;14.40;99.90
54461;DHT22;69977;49.414;11.010;2023-11-19T13:13:28;14.40;99.90
54461;DHT22;69977;49.414;11.010;2023-11-19T13:15:53;14.40;99.90
54461;DHT22;69977;49.414;11.010;2023-11-19T13:18:26;14.60;99.90
54461;DHT22;69977;49.414;11.010;2023-11-19T13:20:52;14.60;99.90
54461;DHT22;69977;49.414;11.010;2023-11-19T13:23:18;14.70;99.90
54461;DHT22;69977;49.414;11.010;2023-11-19T13:25:43;14.70;99.90
54461;DHT22;69977;49.414;11.010;2023-11-19T13:28:11;14.50;99.90
54461;DHT22;69977;49.414;11.010;2023-11-19T13:30:36;14.50;99.90
54461;DHT22;69977;49.414;11.010;2023-11-19T13:33:02;14.50;99.90
54461;DHT22;69977;49.414;11.010;2023-11-19T13:35:28;14.50;99.90
54461;DHT22;69977;49.414;11.010;2023-11-19T13:37:54;14.40;99.90
54461;DHT22;69977;49.414;11.010;2023-11-19T13:40:19;14.40;99.90
54461;DHT22;69977;49.414;11.010;2023-11-19T13:42:47;14.40;99.90
54461;DHT22;69977;49.414;11.010;2023-11-19T13:45:14;14.40;99.90
54461;DHT22;69977;49.414;11.010;2023-11-19T13:47:44;14.30;99.90
54461;DHT22;69977;49.414;11.010;2023-11-19T13:50:11;14.20;99.90
54461;DHT22;69977;49.414;11.010;2023-11-19T13:52:38;14.10;99.90
54461;DHT22;69977;49.414;11.010;2023-11-19T13:55:06;14.00;99.90
54461;DHT22;69977;49.414;11.010;2023-11-19T13:57:32;14.00;99.90
54461;DHT22;69977;49.414;11.010;2023-11-19T13:59:58;14.10;99.90
54461;DHT22;69977;49.414;11.010;2023-11-19T14:02:24;14.20;99.90
54461;DHT22;69977;49.414;11.010;2023-11-19T14:04:49;14.20;99.90
54461;DHT22;69977;49.414;11.010;2023-11-19T14:07:15;14.20;99.90
54461;DHT22;69977;49.414;11.010;2023-11-19T14:09:44;14.20;99.90
54461;DHT22;69977;49.414;11.010;2023-11-19T14:12:11;14.20;99.90
54461;DHT22;69977;49.414;11.010;2023-11-19T14:14:38;14.20;99.90
54461;DHT22;69977;49.414;11.010;2023-11-19T14:17:05;14.30;99.90
54461;DHT22;69977;49.414;11.010;2023-11-19T14:19:30;14.20;99.90
54461;DHT22;69977;49.414;11.010;2023-11-19T14:21:56;14.10;99.90
54461;DHT22;69977;49.414;11.010;2023-11-19T14:24:23;14.10;99.90
54461;DHT22;69977;49.414;11.010;2023-11-19T14:26:49;14.10;99.90
54461;DHT22;69977;49.414;11.010;2023-11-19T14:29:17;14.00;99.90
54461;DHT22;69977;49.414;11.010;2023-11-19T14:31:43;13.90;99.90
54461;DHT22;69977;49.414;11.010;2023-11-19T14:34:09;14.00;99.90
54461;DHT22;69977;49.414;11.010;2023-11-19T14:36:34;13.90;99.90
54461;DHT22;69977;49.414;11.010;2023-11-19T14:39:00;13.80;99.90
54461;DHT22;69977;49.414;11.010;2023-11-19T14:41:26;13.80;99.90
54461;DHT22;69977;49.414;11.010;2023-11-19T14:43:52;13.80;99.90
54461;DHT22;69977;49.414;11.010;2023-11-19T14:46:18;13.80;99.90
54461;DHT22;69977;49.414;11.010;2023-11-19T14:48:44;13.70;99.90
54461;DHT22;69977;49.414;11.010;2023-11-19T14:51:10;13.50;99.90
54461;DHT22;69977;49.414;11.010;2023-11-19T14:53:35;13.50;99.90
54461;DHT22;69977;49.414;11.010;2023-11-19T14:56:01;13.50;99.90
54461;DHT22;69977;49.414;11.010;2023-11-19T14:58:27;13.40;99.90
54461;DHT22;69977;49.414;11.010;2023-11-19T15:00:53;13.30;99.90
54461;DHT22;69977;49.414;11.010;2023-11-19T15:03:19;13.20;99.90
54461;DHT22;69977;49.414;11.010;2023-11-19T15:05:45;13.20;99.90
54461;DHT22;69977;49.414;11.010;2023-11-19T15:08:14;13.10;99.90
54461;DHT22;69977;49.414;11.010;2023-11-19T15:10:43;13.00;99.90
54461;DHT22;69977;49.414;11.010;2023-11-19T15:13:10;13.00;99.90
54461;DHT22;69977;49.414;11.010;2023-11-19T15:15:36;12.90;99.90
54461;DHT22;69977;49.414;11.010;2023-11-19T15:18:04;12.90;99.90
54461;DHT22;69977;49.414;11.010;2023-11-19T15:20:30;12.90;99.90
54461;DHT22;69977;49.414;11.010;2023-11-19T15:22:57;12.90;99.90
54461;DHT22;69977;49.414;11.010;2023-11-19T15:25:23;12.80;99.90
54461;DHT22;69977;49.414;11.010;2023-11-19T15:27:49;12.80;99.90
54461;DHT22;69977;49.414;11.010;2023-11-19T15:30:15;12.70;99.90
54461;DHT22;69977;49.414;11.010;2023-11-19T15:32:42;12.70;99.90
54461;DHT22;69977;49.414;11.010;2023-11-19T15:35:12;12.60;99.90
54461;DHT22;69977;49.414;11.010;2023-11-19T15:37:38;12.70;99.90
54461;DHT22;69977;49.414;11.010;2023-11-19T15:40:07;12.70;99.90
54461;DHT22;69977;49.414;11.010;2023-11-19T15:42:34;12.70;99.90
54461;DHT22;69977;49.414;11.010;2023-11-19T15:45:00;12.60;99.90
54461;DHT22;69977;49.414;11.010;2023-11-19T15:47:29;12.60;99.90